Time;durP1;ratioP1;P1;durP2;ratioP2;P2;SDS_P1;SDS_P2;PMS_P1;PMS_P2;Temp;Humidity;BMP_temperature;BMP_pressure;BME280_temperature;BME280_humidity;BME280_pressure;Samples;Min_cycle;Max_cycle;Signal;HPM_P1;HPM_P2
2023/05/16 00:01:57;;;;;;;757.80;694.13;;;10.50;99.90;;;;;;5090862;28;20481;-63
2023/05/16 00:04:25;;;;;;;759.57;697.80;;;10.50;99.90;;;;;;5091785;28;20449;-63
2023/05/16 00:06:51;;;;;;;716.83;666.03;;;10.50;99.90;;;;;;5092942;28;20833;-63
2023/05/16 00:09:20;;;;;;;682.00;637.20;;;10.30;99.90;;;;;;5090949;28;20480;-63
2023/05/16 00:11:47;;;;;;;693.87;650.90;;;10.20;99.90;;;;;;5092422;28;20450;-63
2023/05/16 00:14:14;;;;;;;541.10;523.03;;;10.20;99.90;;;;;;5095817;28;20485;-63
2023/05/16 00:16:41;;;;;;;630.27;603.43;;;10.00;99.90;;;;;;5097156;28;20449;-63
2023/05/16 00:19:08;;;;;;;524.37;506.50;;;10.10;99.90;;;;;;5095293;28;20449;-62
2023/05/16 00:21:35;;;;;;;590.27;567.50;;;10.00;99.90;;;;;;5094874;28;20995;-63
2023/05/16 00:24:02;;;;;;;584.80;561.80;;;9.90;99.90;;;;;;5095327;28;20449;-62
2023/05/16 00:26:31;;;;;;;587.37;562.07;;;10.00;99.90;;;;;;5097499;28;20495;-62
2023/05/16 00:28:57;;;;;;;584.00;557.13;;;10.10;99.90;;;;;;5095049;28;20448;-63
2023/05/16 00:31:24;;;;;;;550.53;528.50;;;10.00;99.90;;;;;;5094598;28;20476;-62
2023/05/16 00:33:51;;;;;;;484.13;467.33;;;9.90;99.90;;;;;;5095107;28;20828;-62
2023/05/16 00:36:18;;;;;;;500.47;481.73;;;9.90;99.90;;;;;;5097334;28;20542;-62
2023/05/16 00:38:45;;;;;;;536.87;513.63;;;9.90;99.90;;;;;;5095145;28;20468;-63
2023/05/16 00:41:11;;;;;;;555.90;530.83;;;9.90;99.90;;;;;;5094437;28;20460;-63
2023/05/16 00:43:39;;;;;;;591.50;561.40;;;9.90;99.90;;;;;;5094893;28;20455;-63
2023/05/16 00:46:06;;;;;;;527.87;505.10;;;9.90;99.90;;;;;;5096843;28;20454;-62
2023/05/16 00:48:34;;;;;;;486.63;468.95;;;9.80;99.90;;;;;;5094945;28;20449;-63
2023/05/16 00:51:01;;;;;;;308.10;298.63;;;9.60;99.90;;;;;;5094130;28;20212;-62
2023/05/16 00:53:28;;;;;;;425.10;410.33;;;9.50;99.90;;;;;;5094820;28;20864;-63
2023/05/16 00:55:56;;;;;;;442.73;426.97;;;9.50;99.90;;;;;;5096806;28;20458;-63
2023/05/16 00:58:24;;;;;;;469.55;452.73;;;9.40;99.90;;;;;;5094892;28;20450;-63
2023/05/16 01:00:52;;;;;;;526.17;506.17;;;9.30;99.90;;;;;;5094298;28;20199;-63
2023/05/16 01:03:20;;;;;;;469.38;453.17;;;9.30;99.90;;;;;;5094357;28;20457;-62
2023/05/16 01:05:47;;;;;;;506.40;487.52;;;9.20;99.90;;;;;;5096062;28;20211;-62
2023/05/16 01:08:13;;;;;;;515.30;495.80;;;9.20;99.90;;;;;;5094720;28;20214;-62
2023/05/16 01:10:49;;;;;;;551.83;529.57;;;9.20;99.90;;;;;;5093961;28;20492;-63
2023/05/16 01:13:26;;;;;;;568.13;543.63;;;9.10;99.90;;;;;;5094356;28;20456;-63
2023/05/16 01:16:04;;;;;;;584.77;557.27;;;9.00;99.90;;;;;;5096226;28;20456;-62
2023/05/16 01:18:41;;;;;;;591.60;560.53;;;9.10;99.90;;;;;;5094526;28;20453;-62
2023/05/16 01:21:15;;;;;;;596.90;565.83;;;9.10;99.90;;;;;;5093736;28;20460;-63
2023/05/16 01:23:51;;;;;;;539.47;515.07;;;9.20;99.90;;;;;;5093121;28;21018;-63
2023/05/16 01:26:21;;;;;;;568.83;542.30;;;9.20;99.90;;;;;;5096063;28;20897;-63
2023/05/16 01:28:49;;;;;;;613.43;575.97;;;9.20;99.90;;;;;;5094112;28;20457;-63
2023/05/16 01:31:17;;;;;;;622.27;584.37;;;9.20;99.90;;;;;;5093622;28;20484;-63
2023/05/16 01:33:44;;;;;;;611.70;573.70;;;9.10;99.90;;;;;;5093898;28;20881;-63
2023/05/16 01:36:19;;;;;;;640.27;599.70;;;9.10;99.90;;;;;;5096735;28;20537;-62
2023/05/16 01:38:57;;;;;;;616.47;579.93;;;9.10;99.90;;;;;;5093620;28;20475;-63
2023/05/16 01:41:33;;;;;;;599.97;566.90;;;9.00;99.90;;;;;;5093630;28;20522;-63
2023/05/16 01:44:04;;;;;;;557.57;530.83;;;9.10;99.90;;;;;;5093939;28;20545;-63
2023/05/16 01:46:37;;;;;;;569.53;541.93;;;9.00;99.90;;;;;;5095919;28;20818;-62
2023/05/16 01:49:15;;;;;;;594.50;562.60;;;9.00;99.90;;;;;;5093574;28;20453;-64
2023/05/16 01:51:45;;;;;;;542.73;518.40;;;9.00;99.90;;;;;;5093374;28;20485;-63
2023/05/16 01:54:15;;;;;;;496.40;475.60;;;8.90;99.90;;;;;;5093990;28;20458;-63
2023/05/16 01:56:50;;;;;;;492.10;470.57;;;8.70;99.90;;;;;;5095247;28;20454;-66
2023/05/16 01:59:18;;;;;;;514.23;491.23;;;8.80;99.90;;;;;;5093444;28;20453;-62
2023/05/16 02:01:45;;;;;;;536.70;510.83;;;8.70;99.90;;;;;;5092891;28;20450;-63
2023/05/16 02:04:13;;;;;;;531.30;506.13;;;9.30;99.90;;;;;;5093935;28;20716;-62
2023/05/16 02:06:40;;;;;;;503.57;481.57;;;9.30;99.90;;;;;;5095745;28;20465;-63
2023/05/16 02:09:07;;;;;;;507.70;485.33;;;8.60;99.90;;;;;;5093366;28;20450;-62
2023/05/16 02:11:34;;;;;;;517.77;493.57;;;9.20;99.90;;;;;;5092727;28;20531;-62
2023/05/16 02:14:02;;;;;;;503.03;480.10;;;8.50;99.90;;;;;;5093352;28;20818;-63
2023/05/16 02:16:30;;;;;;;487.00;465.57;;;8.30;99.90;;;;;;5095088;28;20994;-63
2023/05/16 02:18:57;;;;;;;490.87;470.40;;;8.60;99.90;;;;;;5093225;28;20461;-63
2023/05/16 02:21:24;;;;;;;526.13;500.93;;;8.90;99.90;;;;;;5092546;28;20445;-63
2023/05/16 02:23:51;;;;;;;484.03;462.33;;;8.20;99.90;;;;;;5093205;28;20449;-63
2023/05/16 02:26:17;;;;;;;475.37;453.87;;;9.00;99.90;;;;;;5094773;28;20454;-63
2023/05/16 02:28:44;;;;;;;483.57;462.20;;;8.60;99.90;;;;;;5092880;28;20957;-62
2023/05/16 02:31:13;;;;;;;438.13;420.63;;;8.80;99.90;;;;;;5092241;28;20483;-63
2023/05/16 02:33:40;;;;;;;358.10;344.57;;;8.80;99.90;;;;;;5092897;28;20457;-63
2023/05/16 02:36:07;;;;;;;432.13;414.60;;;8.80;99.90;;;;;;5094966;28;20452;-65
2023/05/16 02:38:34;;;;;;;412.60;396.00;;;8.60;99.90;;;;;;5093020;28;20460;-63
2023/05/16 02:41:01;;;;;;;478.23;456.93;;;8.60;99.90;;;;;;5092260;28;20449;-63
2023/05/16 02:43:28;;;;;;;446.90;428.23;;;8.20;99.90;;;;;;5092481;28;20454;-62
2023/05/16 02:45:55;;;;;;;443.15;424.45;;;8.60;99.90;;;;;;5094410;28;20445;-62
2023/05/16 02:48:23;;;;;;;456.13;437.70;;;8.50;99.90;;;;;;5092999;28;20227;-63
2023/05/16 02:50:50;;;;;;;466.23;446.03;;;8.50;99.90;;;;;;5092212;28;20491;-63
2023/05/16 02:53:17;;;;;;;365.90;351.60;;;8.50;99.90;;;;;;5092525;28;20485;-63
2023/05/16 02:55:44;;;;;;;433.27;415.80;;;8.20;99.90;;;;;;5094301;28;20455;-63
2023/05/16 02:58:11;;;;;;;466.00;445.90;;;8.60;99.90;;;;;;5093276;28;20821;-63
2023/05/16 03:00:38;;;;;;;482.13;461.07;;;8.50;99.90;;;;;;5092046;28;20454;-63
2023/05/16 03:03:04;;;;;;;527.63;501.03;;;8.50;99.90;;;;;;5092287;28;20456;-63
2023/05/16 03:05:32;;;;;;;523.23;498.87;;;8.30;99.90;;;;;;5093762;28;20465;-63
2023/05/16 03:07:59;;;;;;;521.03;494.83;;;8.70;99.90;;;;;;5093288;28;20457;-63
2023/05/16 03:10:26;;;;;;;527.27;501.87;;;8.30;99.90;;;;;;5091553;28;20455;-63
2023/05/16 03:12:53;;;;;;;499.03;476.70;;;8.40;99.90;;;;;;5091932;28;20449;-62
2023/05/16 03:15:19;;;;;;;523.83;499.03;;;8.40;99.90;;;;;;5093670;28;20446;-62
2023/05/16 03:17:46;;;;;;;528.13;503.93;;;8.40;99.90;;;;;;5092728;28;20461;-62
2023/05/16 03:20:14;;;;;;;514.60;491.43;;;8.50;99.90;;;;;;5091354;28;20484;-63
2023/05/16 03:22:44;;;;;;;543.20;516.30;;;8.60;99.90;;;;;;5091923;28;20445;-62
2023/05/16 03:25:10;;;;;;;514.80;492.73;;;8.40;99.90;;;;;;5092962;28;20453;-62
2023/05/16 03:27:37;;;;;;;514.30;492.13;;;8.40;99.90;;;;;;5092909;28;20457;-62
2023/05/16 03:30:05;;;;;;;584.77;556.13;;;8.30;99.90;;;;;;5091767;28;20453;-63
2023/05/16 03:32:31;;;;;;;580.37;553.40;;;8.40;99.90;;;;;;5091719;28;20499;-62
2023/05/16 03:34:58;;;;;;;580.40;553.10;;;8.30;99.90;;;;;;5092744;28;20456;-62
2023/05/16 03:37:25;;;;;;;576.23;548.87;;;8.30;99.90;;;;;;5092844;28;20960;-63
2023/05/16 03:39:54;;;;;;;604.83;575.37;;;8.30;99.90;;;;;;5091245;28;20453;-63
2023/05/16 03:42:20;;;;;;;605.45;578.85;;;8.20;99.90;;;;;;5091789;28;20457;-63
2023/05/16 03:44:47;;;;;;;548.03;525.43;;;8.20;99.90;;;;;;5092579;28;20205;-62
2023/05/16 03:47:14;;;;;;;598.53;573.50;;;8.10;99.90;;;;;;5092752;28;20457;-63
2023/05/16 03:49:41;;;;;;;624.87;597.27;;;8.20;99.90;;;;;;5091464;28;20475;-62
2023/05/16 03:52:08;;;;;;;596.80;570.20;;;8.20;99.90;;;;;;5091079;28;20827;-63
2023/05/16 03:54:35;;;;;;;582.17;558.27;;;8.10;99.90;;;;;;5092537;28;20449;-62
2023/05/16 03:57:03;;;;;;;606.80;581.60;;;8.20;99.90;;;;;;5093298;28;20450;-63
2023/05/16 03:59:30;;;;;;;643.17;613.00;;;8.10;99.90;;;;;;5091510;28;20453;-63
2023/05/16 04:01:57;;;;;;;593.78;570.08;;;8.10;99.90;;;;;;5090931;28;20449;-63
2023/05/16 04:04:24;;;;;;;603.37;576.80;;;8.10;99.90;;;;;;5091955;28;20192;-63
2023/05/16 04:06:51;;;;;;;543.53;522.73;;;8.10;99.90;;;;;;5092850;28;20492;-63
2023/05/16 04:09:18;;;;;;;597.07;571.57;;;8.00;99.90;;;;;;5091672;28;20450;-63
2023/05/16 04:11:45;;;;;;;586.77;562.77;;;8.00;99.90;;;;;;5090969;28;20554;-62
2023/05/16 04:14:14;;;;;;;577.30;554.07;;;7.90;99.90;;;;;;5092056;28;20503;-62
2023/05/16 04:16:41;;;;;;;534.20;513.40;;;7.80;99.90;;;;;;5093056;28;20453;-63
2023/05/16 04:19:08;;;;;;;555.00;533.53;;;7.70;99.90;;;;;;5091004;28;20453;-62
2023/05/16 04:21:35;;;;;;;610.00;583.63;;;7.70;99.90;;;;;;5090995;28;20462;-63
2023/05/16 04:24:02;;;;;;;589.47;565.37;;;7.60;99.90;;;;;;5091658;28;20450;-63
2023/05/16 04:26:30;;;;;;;632.90;604.80;;;7.60;99.90;;;;;;5093180;28;20449;-62
2023/05/16 04:28:57;;;;;;;586.87;561.00;;;7.60;99.90;;;;;;5091096;28;20449;-63
2023/05/16 04:31:26;;;;;;;484.90;467.65;;;7.60;99.90;;;;;;5090659;28;20473;-63
2023/05/16 04:33:53;;;;;;;596.93;570.77;;;7.50;99.90;;;;;;5090822;28;20200;-63
2023/05/16 04:36:20;;;;;;;595.77;570.30;;;7.60;99.90;;;;;;5093384;28;20445;-63
2023/05/16 04:38:47;;;;;;;642.80;612.93;;;7.50;99.90;;;;;;5091232;28;20499;-63
2023/05/16 04:41:14;;;;;;;613.27;586.23;;;7.50;99.90;;;;;;5090739;28;20473;-63
2023/05/16 04:43:41;;;;;;;569.70;546.53;;;7.50;99.90;;;;;;5090964;28;20971;-63
2023/05/16 04:46:08;;;;;;;559.90;538.17;;;7.50;99.90;;;;;;5093325;28;20540;-62
2023/05/16 04:48:36;;;;;;;600.63;577.13;;;7.50;99.90;;;;;;5091134;28;20851;-63
2023/05/16 04:51:04;;;;;;;645.63;616.67;;;7.50;99.90;;;;;;5090734;28;20453;-62
2023/05/16 04:53:30;;;;;;;621.03;593.27;;;7.50;99.90;;;;;;5091029;28;20456;-63
2023/05/16 04:55:57;;;;;;;672.83;640.17;;;7.60;99.90;;;;;;5092944;28;20476;-63
2023/05/16 04:58:24;;;;;;;662.83;631.83;;;7.60;99.90;;;;;;5090952;28;20453;-63
2023/05/16 05:00:51;;;;;;;643.77;614.77;;;7.70;99.90;;;;;;5094071;28;20462;-63
2023/05/16 05:03:18;;;;;;;625.87;597.70;;;7.70;99.90;;;;;;5094660;28;20453;-63
2023/05/16 05:05:47;;;;;;;654.50;623.97;;;7.70;99.90;;;;;;5096067;28;20976;-63
2023/05/16 05:08:14;;;;;;;593.80;570.70;;;7.70;99.90;;;;;;5095000;28;20453;-63
2023/05/16 05:10:41;;;;;;;581.83;559.03;;;7.80;99.90;;;;;;5094116;28;20453;-63
2023/05/16 05:13:07;;;;;;;580.40;558.50;;;7.80;99.90;;;;;;5094227;28;20976;-64
2023/05/16 05:15:34;;;;;;;597.83;573.63;;;7.90;99.90;;;;;;5095753;28;20452;-63
2023/05/16 05:18:01;;;;;;;561.60;539.87;;;7.90;99.90;;;;;;5094491;28;20460;-64
2023/05/16 05:20:28;;;;;;;571.87;549.20;;;7.90;99.90;;;;;;5094103;28;20457;-63
2023/05/16 05:22:56;;;;;;;538.17;518.13;;;7.90;99.90;;;;;;5094118;28;20481;-63
2023/05/16 05:25:23;;;;;;;537.67;515.53;;;8.00;99.90;;;;;;5095697;28;20802;-63
2023/05/16 05:27:49;;;;;;;531.67;509.27;;;8.20;99.90;;;;;;5095222;28;20855;-64
2023/05/16 05:30:16;;;;;;;497.53;475.73;;;8.30;99.90;;;;;;5093587;28;20453;-64
2023/05/16 05:32:43;;;;;;;475.77;454.27;;;8.40;99.90;;;;;;5094053;28;20449;-64
2023/05/16 05:35:10;;;;;;;281.83;270.83;;;8.60;99.90;;;;;;5095355;28;20454;-64
2023/05/16 05:37:36;;;;;;;372.07;357.43;;;8.70;99.90;;;;;;5094874;28;20492;-64
2023/05/16 05:40:06;;;;;;;156.13;149.57;;;8.90;99.90;;;;;;5092824;28;20457;-65
2023/05/16 05:42:33;;;;;;;180.30;173.27;;;9.00;99.90;;;;;;5093604;28;20469;-65
2023/05/16 05:45:00;;;;;;;104.72;100.95;;;9.20;99.90;;;;;;5094788;28;20987;-65
2023/05/16 05:47:27;;;;;;;39.40;37.27;;;9.20;99.90;;;;;;5094723;28;20200;-64
2023/05/16 05:49:54;;;;;;;63.95;61.08;;;9.40;99.90;;;;;;5093365;28;20460;-65
2023/05/16 05:52:20;;;;;;;45.07;42.37;;;9.40;99.90;;;;;;5093600;28;20200;-65
2023/05/16 05:54:48;;;;;;;19.00;18.00;;;9.70;99.90;;;;;;5094374;28;20446;-64
2023/05/16 05:57:16;;;;;;;14.15;7.35;;;9.70;99.90;;;;;;5095015;28;20544;-65
2023/05/16 05:59:43;;;;;;;15.10;10.47;;;9.80;99.90;;;;;;5093566;28;20192;-65
2023/05/16 06:02:09;;;;;;;16.63;5.27;;;9.90;99.90;;;;;;5093121;28;20848;-65
2023/05/16 06:04:37;;;;;;;14.17;3.10;;;9.80;99.90;;;;;;5080843;28;20446;-65
2023/05/16 06:07:04;;;;;;;6.33;2.87;;;10.00;99.90;;;;;;5074288;28;20462;-65
2023/05/16 06:09:31;;;;;;;11.55;3.95;;;9.90;99.90;;;;;;5070900;28;20450;-65
2023/05/16 06:11:58;;;;;;;16.60;3.93;;;10.00;99.90;;;;;;5071579;28;20671;-64
2023/05/16 06:14:27;;;;;;;9.10;2.40;;;9.90;99.90;;;;;;5072934;28;20450;-65
2023/05/16 06:16:53;;;;;;;18.33;4.10;;;9.90;99.90;;;;;;5074772;28;20810;-65
2023/05/16 06:19:20;;;;;;;8.97;2.57;;;9.90;99.90;;;;;;5072318;28;20497;-65
2023/05/16 06:21:47;;;;;;;9.50;3.00;;;10.00;99.90;;;;;;5071681;28;20477;-65
2023/05/16 06:24:14;;;;;;;9.60;2.00;;;9.90;99.90;;;;;;5072566;28;20455;-65
2023/05/16 06:26:40;;;;;;;6.67;2.00;;;9.80;99.90;;;;;;5074521;28;20455;-65
2023/05/16 06:29:07;;;;;;;14.20;2.97;;;9.80;99.90;;;;;;5072552;28;20462;-65
2023/05/16 06:31:35;;;;;;;10.10;1.87;;;10.10;99.90;;;;;;5072231;28;20509;-65
2023/05/16 06:34:02;;;;;;;16.30;3.70;;;10.00;99.90;;;;;;5072916;28;20450;-65
2023/05/16 06:36:29;;;;;;;10.20;2.60;;;10.40;99.90;;;;;;5074806;28;20451;-65
2023/05/16 06:38:56;;;;;;;5.20;2.10;;;10.30;99.90;;;;;;5072201;28;20454;-65
2023/05/16 06:41:23;;;;;;;5.70;2.00;;;10.30;99.90;;;;;;5072115;28;20901;-65
2023/05/16 06:43:50;;;;;;;6.00;2.33;;;10.60;99.90;;;;;;5072492;28;20945;-65
2023/05/16 06:46:17;;;;;;;8.17;2.90;;;10.70;99.90;;;;;;5074663;28;20450;-65
2023/05/16 06:48:45;;;;;;;9.77;3.03;;;11.20;99.90;;;;;;5072654;28;20817;-65
2023/05/16 06:51:12;;;;;;;13.57;4.20;;;11.40;99.90;;;;;;5071986;28;20450;-65
2023/05/16 06:53:38;;;;;;;7.47;2.10;;;11.40;99.90;;;;;;5072191;28;20197;-65
2023/05/16 06:56:05;;;;;;;25.23;2.10;;;11.10;99.90;;;;;;5074431;28;20446;-65
2023/05/16 06:58:32;;;;;;;10.67;2.00;;;11.20;99.90;;;;;;5072677;28;20969;-65
2023/05/16 07:00:59;;;;;;;15.17;2.90;;;11.00;99.90;;;;;;5071607;28;20934;-65
2023/05/16 07:03:26;;;;;;;9.90;2.50;;;11.20;99.90;;;;;;5072073;28;20474;-65
2023/05/16 07:05:54;;;;;;;7.60;1.77;;;11.20;99.90;;;;;;5073700;28;20942;-65
2023/05/16 07:08:21;;;;;;;6.97;1.43;;;11.30;99.90;;;;;;5072317;28;20462;-65
2023/05/16 07:10:47;;;;;;;11.17;2.80;;;11.50;99.90;;;;;;5071795;28;20454;-65
2023/05/16 07:13:14;;;;;;;8.97;2.03;;;11.50;99.90;;;;;;5072036;28;20451;-65
2023/05/16 07:15:41;;;;;;;6.20;1.87;;;11.60;99.90;;;;;;5073836;28;20647;-65
2023/05/16 07:18:08;;;;;;;6.60;2.10;;;11.50;99.90;;;;;;5072726;28;20469;-65
2023/05/16 07:20:35;;;;;;;7.33;1.70;;;11.20;99.90;;;;;;5071037;28;20450;-65
2023/05/16 07:23:03;;;;;;;8.73;2.30;;;11.40;99.90;;;;;;5071579;28;20485;-65
2023/05/16 07:25:30;;;;;;;9.07;2.60;;;12.00;99.90;;;;;;5073581;28;20886;-65
2023/05/16 07:27:56;;;;;;;7.33;2.33;;;11.60;99.90;;;;;;5072481;28;20454;-65
2023/05/16 07:30:23;;;;;;;8.07;2.20;;;11.90;99.90;;;;;;5071371;28;20450;-65
2023/05/16 07:32:50;;;;;;;9.43;2.53;;;12.20;99.90;;;;;;5071621;28;20453;-65
2023/05/16 07:35:17;;;;;;;15.60;4.03;;;12.90;99.90;;;;;;5072837;28;20454;-65
2023/05/16 07:37:44;;;;;;;12.80;1.73;;;13.30;99.90;;;;;;5072564;28;20450;-65
2023/05/16 07:40:13;;;;;;;8.30;2.00;;;12.20;99.90;;;;;;5071184;28;20465;-65
2023/05/16 07:42:41;;;;;;;16.10;2.78;;;11.70;99.90;;;;;;5071459;28;20467;-65
2023/05/16 07:45:08;;;;;;;6.53;1.60;;;11.50;99.90;;;;;;5072686;28;20200;-65
2023/05/16 07:47:35;;;;;;;10.13;1.93;;;11.60;99.90;;;;;;5072391;28;20450;-65
2023/05/16 07:50:02;;;;;;;20.53;1.80;;;11.70;99.90;;;;;;5071132;28;20458;-65
2023/05/16 07:52:29;;;;;;;8.50;2.53;;;11.90;99.90;;;;;;5071626;28;20454;-65
2023/05/16 07:54:56;;;;;;;4.53;2.10;;;11.90;98.40;;;;;;5072661;28;20456;-66
2023/05/16 07:57:24;;;;;;;9.23;3.10;;;12.30;99.90;;;;;;5072933;28;20455;-66
2023/05/16 07:59:52;;;;;;;13.37;2.07;;;12.70;99.10;;;;;;5071090;28;20447;-67
2023/05/16 08:02:19;;;;;;;8.90;1.70;;;12.70;99.90;;;;;;5070970;28;20470;-67
2023/05/16 08:04:45;;;;;;;5.70;1.53;;;12.70;98.70;;;;;;5072233;28;20457;-67
2023/05/16 08:07:12;;;;;;;9.50;1.80;;;12.20;96.50;;;;;;5072995;28;20798;-66
2023/05/16 08:09:39;;;;;;;8.97;2.00;;;11.80;98.40;;;;;;5071124;28;20446;-66
2023/05/16 08:12:06;;;;;;;12.93;1.50;;;11.80;98.40;;;;;;5070837;28;20454;-66
2023/05/16 08:14:35;;;;;;;7.03;1.50;;;12.00;99.90;;;;;;5071832;28;20537;-66
2023/05/16 08:17:02;;;;;;;15.77;2.30;;;12.00;96.70;;;;;;5072466;28;20465;-66
2023/05/16 08:19:29;;;;;;;9.90;1.70;;;12.10;99.00;;;;;;5070714;28;20477;-66
2023/05/16 08:21:56;;;;;;;5.20;1.43;;;12.00;95.80;;;;;;5070831;28;20453;-67
2023/05/16 08:24:23;;;;;;;5.03;1.20;;;12.20;98.20;;;;;;5070719;28;20450;-66
2023/05/16 08:26:50;;;;;;;7.33;1.43;;;12.40;98.60;;;;;;5072896;28;20453;-66
2023/05/16 08:29:17;;;;;;;11.67;2.03;;;12.20;96.40;;;;;;5070861;28;20474;-66
2023/05/16 08:31:45;;;;;;;6.33;1.43;;;12.10;97.00;;;;;;5070836;28;20477;-65
2023/05/16 08:34:12;;;;;;;6.13;1.10;;;11.90;96.00;;;;;;5074347;28;20450;-65
2023/05/16 08:36:38;;;;;;;6.67;1.87;;;11.60;97.40;;;;;;5077020;28;20453;-65
2023/05/16 08:39:06;;;;;;;5.10;1.40;;;11.70;97.00;;;;;;5074903;28;20446;-65
2023/05/16 08:41:33;;;;;;;5.40;1.63;;;11.40;95.30;;;;;;5074656;28;20784;-65
2023/05/16 08:44:00;;;;;;;9.63;1.77;;;11.40;97.00;;;;;;5074739;28;20477;-65
2023/05/16 08:46:29;;;;;;;5.40;1.60;;;11.90;93.80;;;;;;5077015;28;20480;-65
2023/05/16 08:48:59;;;;;;;4.90;1.40;;;12.80;93.40;;;;;;5074808;28;20477;-65
2023/05/16 08:51:28;;;;;;;10.83;2.10;;;13.50;91.70;;;;;;5074261;28;20450;-65
2023/05/16 08:54:00;;;;;;;7.23;1.87;;;14.10;91.70;;;;;;5075029;28;20469;-66
2023/05/16 08:56:27;;;;;;;6.37;1.83;;;14.10;86.30;;;;;;5077388;28;20485;-65
2023/05/16 08:58:56;;;;;;;6.83;1.97;;;14.90;91.60;;;;;;5074515;28;20457;-66
2023/05/16 09:01:23;;;;;;;11.80;1.80;;;14.90;71.80;;;;;;5074463;28;20459;-65
2023/05/16 09:03:51;;;;;;;5.45;1.40;;;14.50;85.50;;;;;;5074704;28;20474;-65
2023/05/16 09:06:20;;;;;;;14.10;2.50;;;14.90;90.20;;;;;;5076349;28;20263;-65
2023/05/16 09:08:47;;;;;;;10.50;1.80;;;14.30;90.30;;;;;;5074510;28;20465;-65
2023/05/16 09:11:14;;;;;;;6.20;1.50;;;13.70;90.20;;;;;;5074145;28;20454;-65
2023/05/16 09:13:40;;;;;;;15.13;1.80;;;13.70;87.20;;;;;;5074109;28;20452;-65
2023/05/16 09:16:15;;;;;;;9.70;1.17;;;14.10;87.10;;;;;;5076448;28;20455;-65
2023/05/16 09:18:44;;;;;;;12.93;1.77;;;14.90;79.00;;;;;;5074255;28;20475;-66
2023/05/16 09:21:12;;;;;;;7.50;1.30;;;14.70;79.10;;;;;;5073712;28;20463;-65
2023/05/16 09:23:42;;;;;;;7.90;2.57;;;15.00;82.20;;;;;;5073776;28;20479;-65
2023/05/16 09:26:09;;;;;;;5.10;1.95;;;14.80;76.70;;;;;;5076298;28;20435;-65
2023/05/16 09:28:38;;;;;;;8.83;1.43;;;15.50;73.60;;;;;;5074262;28;20195;-65
2023/05/16 09:31:19;;;;;;;11.50;1.83;;;15.80;75.30;;;;;;5073687;28;20463;-65
2023/05/16 09:33:45;;;;;;;6.80;1.80;;;15.30;69.00;;;;;;5074339;28;20446;-66
2023/05/16 09:36:13;;;;;;;5.23;1.00;;;15.60;66.10;;;;;;5075777;28;20459;-64
2023/05/16 09:38:41;;;;;;;5.68;1.30;;;15.30;61.70;;;;;;5074055;28;20541;-64
2023/05/16 09:41:10;;;;;;;16.43;2.70;;;14.60;71.80;;;;;;5073480;28;20211;-63
2023/05/16 09:43:38;;;;;;;7.82;1.35;;;14.20;69.80;;;;;;5073567;28;20915;-63
2023/05/16 09:46:05;;;;;;;8.83;1.60;;;13.80;76.30;;;;;;5075417;28;20209;-63
2023/05/16 09:48:33;;;;;;;6.40;1.70;;;13.30;75.10;;;;;;5073759;28;20453;-63
2023/05/16 09:51:03;;;;;;;8.30;2.53;;;13.40;80.00;;;;;;5073227;28;20452;-64
2023/05/16 09:53:32;;;;;;;10.27;2.10;;;14.50;89.70;;;;;;5073608;28;20450;-63
2023/05/16 09:56:06;;;;;;;6.33;1.50;;;15.00;78.00;;;;;;5075680;28;20920;-63
2023/05/16 09:58:35;;;;;;;8.37;1.83;;;14.90;76.30;;;;;;5073513;28;20537;-63
2023/05/16 10:01:02;;;;;;;7.53;1.20;;;14.50;73.20;;;;;;5072871;28;20455;-63
2023/05/16 10:03:29;;;;;;;8.90;1.50;;;13.80;72.50;;;;;;5073195;28;20475;-63
2023/05/16 10:05:56;;;;;;;8.67;1.70;;;13.70;79.00;;;;;;5074956;28;20954;-63
2023/05/16 10:08:24;;;;;;;7.07;1.50;;;14.60;82.60;;;;;;5073624;28;20451;-65
2023/05/16 10:10:52;;;;;;;5.37;1.67;;;15.80;82.20;;;;;;5072701;28;20465;-65
2023/05/16 10:13:22;;;;;;;6.23;1.30;;;16.20;70.10;;;;;;5073116;28;20814;-65
2023/05/16 10:15:50;;;;;;;5.87;1.60;;;16.60;61.00;;;;;;5074703;28;20502;-65
2023/05/16 10:18:18;;;;;;;11.80;1.53;;;16.40;63.70;;;;;;5073529;28;20821;-65
2023/05/16 10:20:48;;;;;;;7.10;1.50;;;15.80;71.00;;;;;;5072270;28;20502;-64
2023/05/16 10:23:17;;;;;;;9.47;2.00;;;14.90;68.50;;;;;;5072967;28;20523;-63
2023/05/16 10:25:46;;;;;;;12.80;2.27;;;15.10;72.50;;;;;;5074294;28;20457;-63
2023/05/16 10:28:13;;;;;;;7.93;1.70;;;15.90;74.20;;;;;;5073409;28;20497;-64
2023/05/16 10:30:43;;;;;;;6.57;1.80;;;16.40;66.80;;;;;;5072762;28;20462;-64
2023/05/16 10:33:11;;;;;;;7.20;1.73;;;16.30;63.00;;;;;;5073013;28;20497;-64
2023/05/16 10:35:38;;;;;;;4.73;1.20;;;16.10;58.20;;;;;;5075429;28;20456;-64
2023/05/16 10:38:07;;;;;;;8.03;1.47;;;15.80;66.30;;;;;;5073727;28;20458;-64
2023/05/16 10:40:35;;;;;;;8.50;1.60;;;15.70;60.20;;;;;;5072416;28;20450;-64
2023/05/16 10:43:03;;;;;;;8.80;1.70;;;15.50;64.50;;;;;;5072557;28;20219;-65
2023/05/16 10:45:30;;;;;;;9.37;1.73;;;15.70;63.30;;;;;;5092246;28;20458;-65
2023/05/16 10:48:00;;;;;;;9.40;1.83;;;15.80;61.00;;;;;;5093166;28;20452;-65
2023/05/16 10:50:37;;;;;;;5.30;1.10;;;15.50;65.00;;;;;;5092147;28;20454;-65
2023/05/16 10:53:15;;;;;;;8.10;1.40;;;15.00;61.60;;;;;;5092057;28;20452;-65
2023/05/16 10:55:45;;;;;;;7.30;1.40;;;14.70;65.30;;;;;;5093776;28;20519;-65
2023/05/16 10:58:12;;;;;;;7.37;1.90;;;14.30;69.90;;;;;;5092549;28;20454;-65
2023/05/16 11:00:40;;;;;;;5.10;1.40;;;14.10;65.50;;;;;;5091428;28;20461;-65
2023/05/16 11:03:26;;;;;;;10.80;2.47;;;14.50;73.20;;;;;;5091595;28;20944;-65
2023/05/16 11:05:53;;;;;;;7.17;2.00;;;14.70;71.60;;;;;;5093919;28;20207;-66
2023/05/16 11:08:20;;;;;;;5.87;1.30;;;14.90;65.40;;;;;;5092416;28;20458;-64
2023/05/16 11:10:47;;;;;;;5.47;1.23;;;15.90;62.40;;;;;;5092026;28;20458;-65
2023/05/16 11:13:18;;;;;;;4.20;1.00;;;16.70;61.90;;;;;;5092840;28;20473;-65
2023/05/16 11:15:45;;;;;;;9.20;1.00;;;16.50;53.90;;;;;;5094568;28;20484;-65
2023/05/16 11:18:17;;;;;;;8.03;1.30;;;15.50;57.70;;;;;;5093180;28;20838;-66
2023/05/16 11:20:44;;;;;;;10.33;1.60;;;14.90;60.40;;;;;;5092512;28;20466;-67
2023/05/16 11:23:22;;;;;;;6.33;2.10;;;14.60;66.30;;;;;;5092772;28;20460;-66
2023/05/16 11:25:52;;;;;;;4.78;1.08;;;14.30;66.70;;;;;;5094323;28;20452;-65
2023/05/16 11:28:20;;;;;;;10.30;1.73;;;14.80;66.20;;;;;;5093033;28;20543;-66
2023/05/16 11:30:49;;;;;;;5.57;1.23;;;16.00;66.30;;;;;;5092128;28;20478;-66
2023/05/16 11:33:17;;;;;;;4.00;0.90;;;15.90;56.90;;;;;;5092656;28;20790;-66
2023/05/16 11:35:59;;;;;;;6.10;1.70;;;15.40;57.10;;;;;;5093930;28;20453;-66
2023/05/16 11:38:26;;;;;;;5.93;1.30;;;15.20;63.70;;;;;;5092652;28;20209;-66
2023/05/16 11:40:53;;;;;;;7.43;1.60;;;15.30;61.70;;;;;;5091878;28;20450;-64
2023/05/16 11:43:20;;;;;;;8.20;1.57;;;16.10;58.20;;;;;;5092417;28;20483;-64
2023/05/16 11:45:53;;;;;;;5.00;1.40;;;16.70;54.70;;;;;;5093724;28;20818;-64
2023/05/16 11:48:23;;;;;;;4.30;0.90;;;17.10;47.10;;;;;;5092518;28;20576;-64
2023/05/16 11:50:52;;;;;;;5.30;1.10;;;17.00;50.40;;;;;;5092006;28;20445;-64
2023/05/16 11:53:19;;;;;;;9.20;1.30;;;17.90;47.40;;;;;;5092077;28;20499;-64
2023/05/16 11:55:50;;;;;;;9.90;1.93;;;17.30;47.30;;;;;;5093584;28;20494;-64
2023/05/16 11:58:18;;;;;;;9.67;2.13;;;16.30;46.30;;;;;;5092604;28;20527;-64
2023/05/16 12:00:48;;;;;;;6.33;1.77;;;15.60;58.20;;;;;;5091935;28;20451;-64
2023/05/16 12:03:15;;;;;;;9.05;1.55;;;14.70;63.30;;;;;;5091690;28;20453;-64
2023/05/16 12:05:52;;;;;;;6.90;1.63;;;13.80;80.40;;;;;;5093392;28;20213;-64
2023/05/16 12:08:20;;;;;;;5.80;1.60;;;13.10;92.10;;;;;;5094537;28;20510;-64
2023/05/16 12:10:49;;;;;;;7.00;2.30;;;12.60;90.70;;;;;;5095725;28;20453;-64
2023/05/16 12:13:16;;;;;;;14.30;3.10;;;12.50;90.80;;;;;;5096273;28;20510;-64
2023/05/16 12:15:43;;;;;;;9.73;1.70;;;12.10;98.90;;;;;;5097450;28;20449;-63
2023/05/16 12:18:11;;;;;;;7.40;2.50;;;12.00;99.90;;;;;;5096654;28;20792;-65
2023/05/16 12:20:39;;;;;;;8.60;2.13;;;12.00;99.90;;;;;;5095594;28;20506;-65
2023/05/16 12:23:11;;;;;;;9.83;2.17;;;12.40;97.80;;;;;;5095972;28;20449;-65
2023/05/16 12:25:42;;;;;;;4.53;1.50;;;13.30;96.30;;;;;;5096992;28;20483;-65
2023/05/16 12:28:11;;;;;;;5.17;1.43;;;14.80;95.00;;;;;;5093975;28;20917;-66
2023/05/16 12:30:41;;;;;;;7.33;1.47;;;16.10;85.50;;;;;;5094693;28;20932;-66
2023/05/16 12:33:09;;;;;;;9.40;1.80;;;16.80;80.10;;;;;;5094821;28;20514;-66
2023/05/16 12:35:39;;;;;;;10.02;2.13;;;17.60;70.30;;;;;;5097248;28;20500;-67